createdAt,value
2023-04-07T00:00:46.014Z,9.40
2023-04-07T00:03:13.151Z,9.40
2023-04-07T00:05:40.056Z,9.40
2023-04-07T00:08:07.003Z,9.30
2023-04-07T00:10:33.820Z,9.30
2023-04-07T00:13:00.748Z,9.30
2023-04-07T00:15:27.579Z,9.30
2023-04-07T00:17:54.428Z,9.30
2023-04-07T00:20:21.367Z,9.30
2023-04-07T00:22:48.427Z,9.30
2023-04-07T00:25:15.485Z,9.30
2023-04-07T00:27:42.336Z,9.30
2023-04-07T00:30:09.379Z,9.30
2023-04-07T00:32:36.642Z,9.30
2023-04-07T00:35:03.592Z,9.30
2023-04-07T00:37:30.450Z,9.30
2023-04-07T00:39:59.281Z,9.30
2023-04-07T00:42:26.195Z,9.30
2023-04-07T00:44:53.026Z,9.30
2023-04-07T00:47:20.408Z,9.30
2023-04-07T00:49:48.228Z,9.20
2023-04-07T00:52:14.995Z,9.20
2023-04-07T00:54:42.508Z,9.30
2023-04-07T00:57:09.463Z,9.20
2023-04-07T00:59:36.357Z,9.30
2023-04-07T01:02:32.944Z,9.30
2023-04-07T01:05:23.917Z,9.30
2023-04-07T01:08:06.153Z,9.30
2023-04-07T01:10:52.301Z,9.30
2023-04-07T01:13:32.574Z,9.20
2023-04-07T01:16:01.314Z,9.20
2023-04-07T01:18:33.721Z,9.20
2023-04-07T01:21:11.339Z,9.30
2023-04-07T01:23:47.887Z,9.30
2023-04-07T01:26:23.353Z,9.20
2023-04-07T01:29:27.550Z,9.20
2023-04-07T01:31:55.742Z,9.30
2023-04-07T01:34:23.179Z,9.20
2023-04-07T01:36:50.322Z,9.10
2023-04-07T01:39:17.276Z,9.20
2023-04-07T01:41:44.138Z,9.20
2023-04-07T01:44:10.990Z,9.20
2023-04-07T01:46:37.856Z,9.20
2023-04-07T01:49:04.683Z,9.30
2023-04-07T01:51:31.607Z,9.20
2023-04-07T01:53:59.115Z,9.20
2023-04-07T01:56:25.971Z,9.10
2023-04-07T01:58:52.851Z,9.10
2023-04-07T02:01:19.703Z,9.10
2023-04-07T02:04:02.443Z,9.10
2023-04-07T02:06:49.253Z,9.10
2023-04-07T02:09:16.287Z,9.20
2023-04-07T02:11:45.415Z,9.30
2023-04-07T02:14:12.232Z,9.30
2023-04-07T02:16:39.123Z,9.30
2023-04-07T02:19:05.917Z,9.30
2023-04-07T02:21:33.752Z,9.30
2023-04-07T02:24:07.321Z,9.30
2023-04-07T02:26:35.805Z,9.30
2023-04-07T02:29:03.754Z,9.30
2023-04-07T02:31:30.761Z,9.30
2023-04-07T02:33:57.812Z,9.30
2023-04-07T02:36:24.707Z,9.30
2023-04-07T02:38:53.964Z,9.20
2023-04-07T02:41:21.555Z,9.10
2023-04-07T02:43:48.403Z,9.10
2023-04-07T02:46:16.609Z,9.10
2023-04-07T02:48:43.566Z,9.10
2023-04-07T02:51:10.360Z,9.10
2023-04-07T02:53:37.187Z,9.10
2023-04-07T02:56:04.213Z,9.10
2023-04-07T02:58:31.030Z,9.00
2023-04-07T03:00:57.891Z,9.00
2023-04-07T03:03:24.853Z,8.90
2023-04-07T03:05:51.938Z,8.90
2023-04-07T03:08:18.780Z,8.80
2023-04-07T03:10:45.875Z,8.80
2023-04-07T03:13:16.398Z,8.80
2023-04-07T03:15:43.992Z,8.90
2023-04-07T03:18:11.601Z,8.90
2023-04-07T03:20:38.478Z,8.90
2023-04-07T03:23:05.319Z,8.80
2023-04-07T03:25:32.772Z,8.80
2023-04-07T03:27:59.650Z,8.80
2023-04-07T03:30:26.527Z,8.80
2023-04-07T03:32:53.369Z,8.80
2023-04-07T03:35:20.315Z,8.80
2023-04-07T03:37:47.148Z,8.80
2023-04-07T03:40:15.298Z,8.70
2023-04-07T03:42:42.090Z,8.70
2023-04-07T03:45:09.477Z,8.70
2023-04-07T03:47:36.325Z,8.70
2023-04-07T03:50:03.299Z,8.70
2023-04-07T03:52:30.221Z,8.70
2023-04-07T03:54:57.003Z,8.70
2023-04-07T03:57:23.797Z,8.70
2023-04-07T03:59:51.399Z,8.70
2023-04-07T04:02:18.868Z,8.70
2023-04-07T04:04:46.000Z,8.70
2023-04-07T04:07:12.910Z,8.60
2023-04-07T04:09:40.089Z,8.60
2023-04-07T04:12:06.961Z,8.60
2023-04-07T04:14:33.787Z,8.60
2023-04-07T04:17:00.791Z,8.60
2023-04-07T04:19:27.625Z,8.60
2023-04-07T04:21:54.417Z,8.60
2023-04-07T04:24:21.246Z,8.60
2023-04-07T04:26:48.134Z,8.70
2023-04-07T04:29:15.048Z,8.70
2023-04-07T04:31:41.859Z,8.70
2023-04-07T04:34:08.724Z,8.70
2023-04-07T04:36:37.322Z,8.70
2023-04-07T04:39:05.250Z,8.70
2023-04-07T04:41:32.085Z,8.70
2023-04-07T04:43:59.095Z,8.70
2023-04-07T04:46:27.138Z,8.80
2023-04-07T04:48:54.240Z,8.80
2023-04-07T04:51:21.089Z,8.70
2023-04-07T04:53:47.899Z,8.80
2023-04-07T04:56:14.770Z,8.80
2023-04-07T04:58:46.088Z,8.80
2023-04-07T05:01:13.495Z,8.90
2023-04-07T05:03:40.812Z,8.80
2023-04-07T05:06:07.984Z,8.80
2023-04-07T05:08:34.791Z,8.70
2023-04-07T05:11:01.623Z,8.70
2023-04-07T05:13:30.789Z,8.80
2023-04-07T05:15:57.733Z,8.80
2023-04-07T05:18:24.691Z,8.70
2023-04-07T05:20:51.709Z,8.70
2023-04-07T05:23:18.544Z,8.70
2023-04-07T05:25:45.462Z,8.80
2023-04-07T05:28:12.320Z,8.80
2023-04-07T05:30:39.178Z,8.90
2023-04-07T05:33:06.032Z,8.90
2023-04-07T05:35:32.892Z,9.00
2023-04-07T05:37:59.705Z,9.00
2023-04-07T05:40:26.725Z,9.00
2023-04-07T05:42:53.593Z,8.90
2023-04-07T05:45:20.564Z,9.00
2023-04-07T05:47:50.127Z,9.00
2023-04-07T05:50:18.555Z,8.90
2023-04-07T05:52:46.214Z,8.90
2023-04-07T05:55:13.069Z,9.00
2023-04-07T05:57:40.335Z,9.00
2023-04-07T06:00:07.852Z,9.00
2023-04-07T06:02:34.822Z,9.00
2023-04-07T06:05:01.856Z,9.00
2023-04-07T06:07:29.773Z,9.00
2023-04-07T06:09:56.591Z,9.00
2023-04-07T06:12:23.422Z,9.00
2023-04-07T06:14:54.805Z,9.00
2023-04-07T06:17:21.879Z,9.00
2023-04-07T06:19:48.677Z,9.10
2023-04-07T06:22:15.521Z,9.10
2023-04-07T06:24:42.407Z,9.20
2023-04-07T06:27:09.212Z,9.20
2023-04-07T06:29:36.707Z,9.20
2023-04-07T06:32:03.589Z,9.20
2023-04-07T06:34:30.473Z,9.20
2023-04-07T06:36:58.351Z,9.30
2023-04-07T06:39:27.505Z,9.20
2023-04-07T06:41:54.323Z,9.30
2023-04-07T06:44:21.170Z,9.30
2023-04-07T06:46:50.440Z,9.30
2023-04-07T06:49:17.466Z,9.30
2023-04-07T06:51:44.320Z,9.30
2023-04-07T06:54:14.901Z,9.30
2023-04-07T06:56:42.467Z,9.40
2023-04-07T06:59:09.550Z,9.40
2023-04-07T07:01:37.828Z,9.40
2023-04-07T07:04:08.827Z,9.30
2023-04-07T07:06:35.796Z,9.40
2023-04-07T07:09:04.243Z,9.40
2023-04-07T07:11:31.339Z,9.40
2023-04-07T07:13:58.175Z,9.40
2023-04-07T07:16:25.028Z,9.50
2023-04-07T07:18:52.013Z,9.50
2023-04-07T07:21:19.126Z,9.60
2023-04-07T07:23:46.306Z,9.60
2023-04-07T07:26:13.386Z,9.60
2023-04-07T07:28:40.183Z,9.50
2023-04-07T07:31:13.654Z,9.50
2023-04-07T07:33:41.381Z,9.50
2023-04-07T07:36:08.622Z,9.60
2023-04-07T07:38:37.031Z,9.60
2023-04-07T07:41:04.605Z,9.70
2023-04-07T07:43:31.459Z,9.80
2023-04-07T07:45:58.368Z,9.80
2023-04-07T07:48:25.365Z,9.90
2023-04-07T07:50:52.609Z,9.90
2023-04-07T07:53:19.527Z,9.90
2023-04-07T07:55:47.205Z,9.80
2023-04-07T07:58:14.105Z,9.80
2023-04-07T08:00:41.055Z,9.80
2023-04-07T08:03:08.186Z,9.80
2023-04-07T08:05:35.385Z,9.80
2023-04-07T08:08:03.057Z,9.70
2023-04-07T08:10:29.959Z,9.80
2023-04-07T08:12:56.877Z,9.80
2023-04-07T08:15:23.747Z,9.80
2023-04-07T08:17:50.783Z,9.90
2023-04-07T08:20:17.784Z,9.90
2023-04-07T08:22:44.567Z,9.90
2023-04-07T08:25:11.445Z,9.80
2023-04-07T08:27:38.425Z,9.60
2023-04-07T08:30:08.911Z,9.50
2023-04-07T08:32:37.098Z,9.60
2023-04-07T08:35:05.487Z,9.50
2023-04-07T08:37:33.280Z,9.60
2023-04-07T08:40:00.850Z,9.60
2023-04-07T08:42:29.942Z,9.60
2023-04-07T08:45:00.179Z,9.60
2023-04-07T08:47:28.028Z,9.60
2023-04-07T08:49:56.437Z,9.70
2023-04-07T08:52:23.524Z,9.70
2023-04-07T08:54:50.366Z,9.80
2023-04-07T08:57:18.195Z,10.00
2023-04-07T08:59:48.998Z,9.90
2023-04-07T09:02:15.890Z,10.00
2023-04-07T09:04:44.165Z,10.00
2023-04-07T09:07:11.049Z,10.00
2023-04-07T09:09:37.929Z,9.90
2023-04-07T09:12:04.755Z,10.00
2023-04-07T09:14:31.640Z,10.10
2023-04-07T09:17:00.301Z,10.10
2023-04-07T09:19:27.521Z,10.10
2023-04-07T09:21:54.453Z,10.10
2023-04-07T09:24:28.868Z,10.10
2023-04-07T09:27:13.935Z,10.20
2023-04-07T09:29:43.325Z,10.30
2023-04-07T09:32:10.573Z,10.30
2023-04-07T09:34:40.915Z,10.30
2023-04-07T09:37:09.705Z,10.40
2023-04-07T09:40:03.222Z,10.50
2023-04-07T09:42:32.539Z,10.50
2023-04-07T09:45:00.491Z,10.50
2023-04-07T09:47:31.737Z,10.50
2023-04-07T09:50:01.975Z,10.40
2023-04-07T09:52:54.254Z,10.40
2023-04-07T09:55:22.224Z,10.40
2023-04-07T09:57:52.356Z,10.50
2023-04-07T10:00:19.266Z,10.60
2023-04-07T10:02:46.798Z,10.70
2023-04-07T10:05:14.074Z,10.70
2023-04-07T10:07:42.687Z,10.70
2023-04-07T10:10:10.455Z,10.60
2023-04-07T10:12:41.836Z,10.70
2023-04-07T10:15:09.051Z,10.70
2023-04-07T10:17:37.362Z,10.70
2023-04-07T10:20:05.373Z,10.80
2023-04-07T10:22:32.216Z,10.80
2023-04-07T10:25:06.620Z,11.00
2023-04-07T10:27:38.990Z,11.00
2023-04-07T10:30:12.250Z,10.90
2023-04-07T10:32:57.946Z,11.00
2023-04-07T10:35:24.867Z,11.10
2023-04-07T10:38:10.944Z,11.00
2023-04-07T10:40:38.391Z,11.10
2023-04-07T10:43:09.483Z,11.10
2023-04-07T10:45:50.690Z,11.30
2023-04-07T10:48:18.214Z,11.30
2023-04-07T10:51:10.786Z,11.40
2023-04-07T10:53:38.437Z,11.40
2023-04-07T10:56:05.914Z,11.40
2023-04-07T10:58:33.398Z,11.50
2023-04-07T11:01:00.623Z,11.20
2023-04-07T11:03:28.727Z,11.10
2023-04-07T11:06:12.004Z,10.90
2023-04-07T11:08:45.697Z,10.80
2023-04-07T11:11:15.501Z,10.90
2023-04-07T11:13:49.974Z,10.90
2023-04-07T11:16:20.040Z,10.80
2023-04-07T11:18:48.205Z,10.80
2023-04-07T11:21:18.506Z,10.80
2023-04-07T11:23:46.796Z,10.70
2023-04-07T11:26:14.632Z,10.80
2023-04-07T11:28:55.302Z,10.70
2023-04-07T11:31:31.759Z,10.60
2023-04-07T11:34:03.425Z,10.80
2023-04-07T11:36:32.387Z,10.90
2023-04-07T11:38:59.651Z,10.80
2023-04-07T11:41:32.948Z,10.80
2023-04-07T11:44:10.049Z,10.90
2023-04-07T11:46:52.937Z,11.00
2023-04-07T11:49:19.798Z,11.10
2023-04-07T11:51:47.609Z,11.00
2023-04-07T11:54:16.141Z,10.70
2023-04-07T11:56:46.866Z,10.60
2023-04-07T11:59:24.023Z,10.50
2023-04-07T12:01:51.672Z,10.70
2023-04-07T12:04:18.970Z,10.90
2023-04-07T12:06:47.678Z,11.00
2023-04-07T12:09:29.466Z,11.10
2023-04-07T12:11:58.603Z,11.10
2023-04-07T12:14:26.355Z,11.00
2023-04-07T12:16:56.353Z,10.80
2023-04-07T12:19:28.265Z,10.60
2023-04-07T12:21:56.672Z,10.40
2023-04-07T12:24:24.019Z,10.20
2023-04-07T12:26:51.005Z,10.20
2023-04-07T12:29:20.048Z,10.20
2023-04-07T12:31:49.423Z,10.00
2023-04-07T12:34:17.659Z,9.60
2023-04-07T12:36:44.791Z,9.40
2023-04-07T12:39:12.274Z,9.30
2023-04-07T12:41:40.129Z,9.30
2023-04-07T12:44:07.123Z,9.40
2023-04-07T12:46:34.111Z,9.60
2023-04-07T12:49:01.279Z,9.70
2023-04-07T12:51:28.580Z,9.80
2023-04-07T12:53:56.677Z,10.00
2023-04-07T12:56:24.221Z,10.00
2023-04-07T12:58:51.297Z,10.00
2023-04-07T13:01:18.171Z,9.90
2023-04-07T13:03:45.204Z,10.00
2023-04-07T13:06:12.339Z,10.00
2023-04-07T13:08:39.897Z,10.00
2023-04-07T13:11:07.142Z,10.20
2023-04-07T13:13:34.110Z,10.30
2023-04-07T13:16:01.266Z,10.30
2023-04-07T13:18:28.210Z,10.80
2023-04-07T13:21:26.605Z,11.00
2023-04-07T13:23:44.125Z,11.00
2023-04-07T13:26:11.477Z,11.00
2023-04-07T13:28:38.956Z,10.80
2023-04-07T13:31:06.340Z,10.50
2023-04-07T13:33:34.388Z,10.30
2023-04-07T13:36:02.352Z,10.20
2023-04-07T13:38:29.182Z,10.00
2023-04-07T13:40:57.083Z,9.90
2023-04-07T13:43:23.922Z,10.00
2023-04-07T13:45:50.870Z,9.90
2023-04-07T13:48:17.821Z,9.90
2023-04-07T13:50:44.629Z,10.00
2023-04-07T13:53:11.629Z,10.20
2023-04-07T13:55:39.167Z,10.30
2023-04-07T13:58:05.976Z,10.20
2023-04-07T14:00:32.909Z,10.30
2023-04-07T14:03:00.303Z,10.40
2023-04-07T14:05:27.364Z,10.40
2023-04-07T14:07:54.592Z,10.30
2023-04-07T14:10:21.709Z,10.30
2023-04-07T14:12:48.623Z,10.30
2023-04-07T14:15:17.728Z,10.20
2023-04-07T14:17:45.146Z,10.00
2023-04-07T14:20:12.175Z,9.80
2023-04-07T14:22:39.016Z,9.80
2023-04-07T14:25:06.498Z,9.70
2023-04-07T14:27:33.487Z,9.60
2023-04-07T14:30:00.448Z,9.60
2023-04-07T14:32:29.597Z,9.70
2023-04-07T14:34:59.113Z,9.90
2023-04-07T14:37:26.803Z,10.00
2023-04-07T14:40:02.459Z,10.00
2023-04-07T14:42:30.433Z,9.90
2023-04-07T14:44:57.957Z,9.80
2023-04-07T14:47:25.612Z,9.70
2023-04-07T14:49:53.422Z,9.80
2023-04-07T14:52:21.924Z,9.90
2023-04-07T14:54:49.091Z,9.90
2023-04-07T14:57:16.831Z,9.90
2023-04-07T14:59:44.046Z,9.90
2023-04-07T15:02:11.255Z,9.90
2023-04-07T15:04:38.744Z,9.90
2023-04-07T15:07:05.772Z,9.90
2023-04-07T15:09:32.662Z,9.90
2023-04-07T15:12:00.598Z,9.80
2023-04-07T15:14:27.464Z,9.80
2023-04-07T15:16:54.221Z,9.70
2023-04-07T15:19:21.120Z,9.70
2023-04-07T15:21:47.969Z,9.70
2023-04-07T15:24:16.272Z,9.60
2023-04-07T15:26:43.461Z,9.60
2023-04-07T15:29:10.479Z,9.70
2023-04-07T15:31:37.337Z,9.70
2023-04-07T15:34:04.268Z,9.60
2023-04-07T15:36:31.625Z,9.60
2023-04-07T15:39:04.569Z,9.60
2023-04-07T15:41:31.482Z,9.70
2023-04-07T15:43:59.995Z,9.60
2023-04-07T15:46:27.904Z,9.60
2023-04-07T15:48:54.926Z,9.70
2023-04-07T15:51:21.750Z,9.60
2023-04-07T15:53:48.940Z,9.70
2023-04-07T15:56:16.024Z,9.80
2023-04-07T15:58:42.872Z,9.80
2023-04-07T16:01:09.721Z,9.80
2023-04-07T16:03:36.610Z,9.80
2023-04-07T16:06:03.568Z,9.70
2023-04-07T16:08:30.507Z,9.70
2023-04-07T16:10:57.385Z,9.60
2023-04-07T16:13:24.414Z,9.60
2023-04-07T16:15:55.006Z,9.60
2023-04-07T16:18:21.848Z,9.70
2023-04-07T16:20:48.667Z,9.70
2023-04-07T16:23:15.530Z,9.70
2023-04-07T16:25:42.330Z,9.60
2023-04-07T16:28:09.245Z,9.60
2023-04-07T16:30:36.261Z,9.60
2023-04-07T16:33:03.410Z,9.60
2023-04-07T16:35:31.975Z,9.70
2023-04-07T16:38:04.524Z,9.60
2023-04-07T16:40:31.928Z,9.60
2023-04-07T16:42:58.808Z,9.70
2023-04-07T16:45:25.693Z,9.60
2023-04-07T16:47:52.527Z,9.50
2023-04-07T16:50:19.602Z,9.50
2023-04-07T16:52:47.729Z,9.50
2023-04-07T16:55:14.678Z,9.60
2023-04-07T16:57:41.591Z,9.60
2023-04-07T17:00:08.992Z,9.50
2023-04-07T17:02:36.073Z,9.40
2023-04-07T17:05:04.141Z,9.40
2023-04-07T17:07:31.114Z,9.40
2023-04-07T17:09:58.085Z,9.40
2023-04-07T17:12:26.412Z,9.40
2023-04-07T17:14:53.218Z,9.30
2023-04-07T17:17:22.360Z,9.40
2023-04-07T17:19:49.327Z,9.40
2023-04-07T17:22:16.198Z,9.40
2023-04-07T17:24:42.990Z,9.50
2023-04-07T17:27:10.827Z,9.50
2023-04-07T17:29:37.716Z,9.60
2023-04-07T17:32:04.693Z,9.50
2023-04-07T17:34:31.769Z,9.40
2023-04-07T17:36:58.621Z,9.40
2023-04-07T17:39:25.725Z,9.40
2023-04-07T17:41:52.588Z,9.40
2023-04-07T17:44:19.374Z,9.30
2023-04-07T17:46:46.718Z,9.30
2023-04-07T17:49:15.010Z,9.30
2023-04-07T17:51:43.846Z,9.20
2023-04-07T17:54:10.793Z,9.20
2023-04-07T17:56:38.313Z,9.20
2023-04-07T17:59:05.186Z,9.20
2023-04-07T18:01:32.329Z,9.20
2023-04-07T18:04:00.235Z,9.20
2023-04-07T18:06:28.589Z,9.20
2023-04-07T18:08:55.650Z,9.20
2023-04-07T18:11:22.948Z,9.20
2023-04-07T18:13:50.016Z,9.30
2023-04-07T18:16:21.924Z,9.30
2023-04-07T18:18:49.354Z,9.20
2023-04-07T18:21:16.195Z,9.20
2023-04-07T18:23:43.602Z,9.20
2023-04-07T18:26:10.398Z,9.20
2023-04-07T18:28:37.238Z,9.20
2023-04-07T18:31:06.602Z,9.20
2023-04-07T18:33:34.289Z,9.20
2023-04-07T18:36:03.224Z,9.20
2023-04-07T18:38:31.650Z,9.20
2023-04-07T18:40:58.862Z,9.20
2023-04-07T18:43:26.496Z,9.20
2023-04-07T18:45:54.880Z,9.10
2023-04-07T18:48:21.759Z,9.10
2023-04-07T18:50:52.490Z,9.10
2023-04-07T18:53:22.534Z,9.10
2023-04-07T18:55:49.686Z,9.10
2023-04-07T18:58:17.579Z,9.10
2023-04-07T19:00:47.880Z,9.10
2023-04-07T19:03:16.511Z,9.10
2023-04-07T19:05:47.692Z,9.10
2023-04-07T19:08:16.336Z,9.10
2023-04-07T19:10:43.941Z,9.10
2023-04-07T19:13:11.077Z,9.10
2023-04-07T19:15:39.415Z,9.00
2023-04-07T19:18:07.861Z,9.00
2023-04-07T19:20:34.826Z,9.00
2023-04-07T19:23:02.091Z,9.00
2023-04-07T19:25:31.368Z,9.10
2023-04-07T19:27:58.416Z,9.10
2023-04-07T19:30:25.311Z,9.10
2023-04-07T19:32:52.850Z,9.10
2023-04-07T19:35:20.508Z,9.10
2023-04-07T19:37:48.570Z,9.10
2023-04-07T19:40:17.061Z,9.20
2023-04-07T19:42:44.250Z,9.20
2023-04-07T19:45:11.529Z,9.20
2023-04-07T19:47:38.670Z,9.10
2023-04-07T19:50:06.650Z,9.10
2023-04-07T19:52:33.508Z,9.10
2023-04-07T19:55:01.303Z,9.10
2023-04-07T19:57:29.067Z,9.10
2023-04-07T19:59:57.290Z,9.10
2023-04-07T20:02:24.323Z,9.10
2023-04-07T20:04:51.241Z,9.10
2023-04-07T20:07:18.153Z,9.10
2023-04-07T20:09:45.265Z,9.10
2023-04-07T20:12:17.424Z,9.10
2023-04-07T20:14:44.252Z,9.00
2023-04-07T20:17:11.979Z,9.00
2023-04-07T20:19:41.571Z,9.00
2023-04-07T20:22:09.416Z,9.00
2023-04-07T20:24:36.311Z,9.10
2023-04-07T20:27:03.244Z,9.10
2023-04-07T20:29:30.056Z,9.10
2023-04-07T20:31:57.238Z,9.00
2023-04-07T20:34:24.137Z,9.00
2023-04-07T20:36:51.026Z,9.00
2023-04-07T20:39:19.886Z,9.00
2023-04-07T20:41:48.886Z,9.00
2023-04-07T20:44:18.386Z,9.10
2023-04-07T20:46:48.386Z,9.00
2023-04-07T20:49:15.209Z,9.10
2023-04-07T20:51:42.146Z,9.00
2023-04-07T20:54:09.055Z,9.00
2023-04-07T20:56:35.872Z,9.00
2023-04-07T20:59:02.676Z,9.00
2023-04-07T21:01:29.636Z,8.90
2023-04-07T21:03:56.603Z,9.00
2023-04-07T21:06:23.569Z,9.00
2023-04-07T21:08:50.550Z,9.00
2023-04-07T21:11:17.540Z,9.00
2023-04-07T21:13:45.766Z,9.00
2023-04-07T21:16:12.643Z,9.10
2023-04-07T21:18:39.518Z,9.10
2023-04-07T21:21:08.180Z,9.10
2023-04-07T21:23:35.095Z,9.10
2023-04-07T21:26:05.117Z,9.10
2023-04-07T21:28:31.931Z,9.10
2023-04-07T21:30:59.337Z,9.10
2023-04-07T21:33:26.224Z,9.20
2023-04-07T21:35:53.273Z,9.20
2023-04-07T21:38:20.202Z,9.20
2023-04-07T21:40:47.569Z,9.20
2023-04-07T21:43:23.255Z,9.20
2023-04-07T21:45:50.073Z,9.20
2023-04-07T21:48:20.837Z,9.30
2023-04-07T21:50:47.707Z,9.30
2023-04-07T21:53:14.492Z,9.30
2023-04-07T21:55:41.414Z,9.20
2023-04-07T21:58:08.190Z,9.20
2023-04-07T22:00:35.003Z,9.20
2023-04-07T22:03:03.114Z,9.20
2023-04-07T22:05:30.108Z,9.20
2023-04-07T22:07:57.011Z,9.20
2023-04-07T22:10:23.894Z,9.20
2023-04-07T22:12:50.745Z,9.20
2023-04-07T22:15:18.680Z,9.20
2023-04-07T22:17:45.854Z,9.20
2023-04-07T22:20:12.906Z,9.20
2023-04-07T22:22:39.870Z,9.10
2023-04-07T22:25:06.939Z,9.10
2023-04-07T22:27:33.934Z,9.10
2023-04-07T22:30:01.121Z,9.10
2023-04-07T22:32:28.981Z,9.10
2023-04-07T22:34:57.990Z,9.10
2023-04-07T22:37:24.838Z,9.10
2023-04-07T22:39:51.675Z,9.10
2023-04-07T22:42:18.516Z,9.10
2023-04-07T22:44:45.328Z,9.10
2023-04-07T22:47:12.514Z,9.10
2023-04-07T22:49:40.474Z,9.00
2023-04-07T22:52:07.272Z,9.00
2023-04-07T22:54:34.072Z,9.00
2023-04-07T22:57:02.172Z,9.00
2023-04-07T22:59:29.030Z,9.00
2023-04-07T23:01:57.675Z,8.90
2023-04-07T23:04:24.885Z,9.00
2023-04-07T23:06:51.721Z,9.10
2023-04-07T23:09:18.744Z,9.10
2023-04-07T23:11:48.887Z,9.20
2023-04-07T23:14:15.768Z,9.10
2023-04-07T23:16:42.638Z,9.10
2023-04-07T23:19:15.567Z,9.10
2023-04-07T23:21:43.046Z,9.20
2023-04-07T23:24:09.932Z,9.20
2023-04-07T23:26:36.726Z,9.30
2023-04-07T23:29:03.622Z,9.20
2023-04-07T23:31:31.159Z,9.10
2023-04-07T23:33:58.884Z,9.00
2023-04-07T23:36:27.187Z,9.00
2023-04-07T23:38:56.058Z,9.10
2023-04-07T23:41:23.284Z,9.10
2023-04-07T23:43:50.128Z,9.10
2023-04-07T23:46:18.261Z,9.20
2023-04-07T23:48:45.153Z,9.20
2023-04-07T23:51:12.802Z,9.20
2023-04-07T23:53:39.675Z,9.10
2023-04-07T23:56:06.739Z,9.10
2023-04-07T23:58:33.608Z,9.10
